createdAt,value
2023-04-22T00:00:08.251Z,11.20
2023-04-22T00:01:08.205Z,12.60
2023-04-22T00:02:08.240Z,10.30
2023-04-22T00:03:08.262Z,13.40
2023-04-22T00:04:08.455Z,10.00
2023-04-22T00:05:08.100Z,11.40
2023-04-22T00:06:07.980Z,12.00
2023-04-22T00:07:07.913Z,11.50
2023-04-22T00:08:07.867Z,10.50
2023-04-22T00:09:07.823Z,10.40
2023-04-22T00:10:07.778Z,11.60
2023-04-22T00:11:07.747Z,11.00
2023-04-22T00:12:07.695Z,13.10
2023-04-22T00:13:07.654Z,11.60
2023-04-22T00:14:07.600Z,12.10
2023-04-22T00:15:07.535Z,10.50
2023-04-22T00:16:07.743Z,10.50
2023-04-22T00:17:07.445Z,10.70
2023-04-22T00:18:07.457Z,11.30
2023-04-22T00:19:07.352Z,11.60
2023-04-22T00:20:07.306Z,10.20
2023-04-22T00:21:07.254Z,12.20
2023-04-22T00:22:07.230Z,11.30
2023-04-22T00:23:07.165Z,12.90
2023-04-22T00:24:07.112Z,13.10
2023-04-22T00:25:07.084Z,14.00
2023-04-22T00:26:07.025Z,14.40
2023-04-22T00:27:06.985Z,12.50
2023-04-22T00:28:06.924Z,11.80
2023-04-22T00:29:06.900Z,12.50
2023-04-22T00:30:06.850Z,12.60
2023-04-22T00:31:06.819Z,15.80
2023-04-22T00:32:06.737Z,13.50
2023-04-22T00:33:06.749Z,17.30
2023-04-22T00:34:06.656Z,14.30
2023-04-22T00:35:06.681Z,15.20
2023-04-22T00:36:06.552Z,13.40
2023-04-22T00:37:06.505Z,15.10
2023-04-22T00:38:06.468Z,14.90
2023-04-22T00:39:06.418Z,14.10
2023-04-22T00:40:06.357Z,12.70
2023-04-22T00:41:06.308Z,12.40
2023-04-22T00:42:06.261Z,15.40
2023-04-22T00:43:06.215Z,14.10
2023-04-22T00:44:06.166Z,16.30
2023-04-22T00:45:06.121Z,13.50
2023-04-22T00:46:06.099Z,16.50
2023-04-22T00:47:06.082Z,13.40
2023-04-22T00:48:06.079Z,14.50
2023-04-22T00:49:05.933Z,13.40
2023-04-22T00:50:05.887Z,10.80
2023-04-22T00:51:05.836Z,10.60
2023-04-22T00:52:05.796Z,10.70
2023-04-22T00:53:05.741Z,11.90
2023-04-22T00:54:05.711Z,11.20
2023-04-22T00:55:05.643Z,13.50
2023-04-22T00:56:05.596Z,14.80
2023-04-22T00:57:05.551Z,14.10
2023-04-22T00:58:05.501Z,15.00
2023-04-22T00:59:05.465Z,16.40
2023-04-22T01:00:05.429Z,14.00
2023-04-22T01:01:05.402Z,15.40
2023-04-22T01:02:05.384Z,13.80
2023-04-22T01:03:05.469Z,16.40
2023-04-22T01:04:05.397Z,16.70
2023-04-22T01:05:05.175Z,14.40
2023-04-22T01:06:05.140Z,15.50
2023-04-22T01:07:05.082Z,18.20
2023-04-22T01:08:05.035Z,18.30
2023-04-22T01:09:05.018Z,15.10
2023-04-22T01:10:05.004Z,14.10
2023-04-22T01:11:04.968Z,17.10
2023-04-22T01:12:04.849Z,17.50
2023-04-22T01:13:04.797Z,14.80
2023-04-22T01:14:04.756Z,15.70
2023-04-22T01:15:05.184Z,18.30
2023-04-22T01:16:04.764Z,15.60
2023-04-22T01:17:04.692Z,17.40
2023-04-22T01:18:04.623Z,17.90
2023-04-22T01:19:04.517Z,18.00
2023-04-22T01:20:04.609Z,15.80
2023-04-22T01:21:04.433Z,20.20
2023-04-22T01:22:04.374Z,16.70
2023-04-22T01:23:04.333Z,17.50
2023-04-22T01:24:04.281Z,17.50
2023-04-22T01:25:04.243Z,16.40
2023-04-22T01:26:04.211Z,17.20
2023-04-22T01:27:04.140Z,17.80
2023-04-22T01:28:04.113Z,16.10
2023-04-22T01:29:04.045Z,19.30
2023-04-22T01:30:04.010Z,17.40
2023-04-22T01:31:03.955Z,18.50
2023-04-22T01:32:04.037Z,16.20
2023-04-22T01:33:03.893Z,16.30
2023-04-22T01:34:03.831Z,16.60
2023-04-22T01:35:03.774Z,18.00
2023-04-22T01:36:03.726Z,17.80
2023-04-22T01:37:03.667Z,18.80
2023-04-22T01:38:03.618Z,16.70
2023-04-22T01:39:03.591Z,16.50
2023-04-22T01:40:03.527Z,16.10
2023-04-22T01:41:03.477Z,17.00
2023-04-22T01:42:03.510Z,18.80
2023-04-22T01:43:03.392Z,17.10
2023-04-22T01:44:03.339Z,17.70
2023-04-22T01:45:03.290Z,22.10
2023-04-22T01:46:03.261Z,18.20
2023-04-22T01:47:03.194Z,17.20
2023-04-22T01:48:03.175Z,18.20
2023-04-22T01:49:03.107Z,17.90
2023-04-22T01:50:03.054Z,18.10
2023-04-22T01:51:03.011Z,20.30
2023-04-22T01:52:02.963Z,18.80
2023-04-22T01:53:02.963Z,18.90
2023-04-22T01:54:02.867Z,21.70
2023-04-22T01:55:02.828Z,21.60
2023-04-22T01:56:02.774Z,21.70
2023-04-22T01:57:02.725Z,23.60
2023-04-22T01:58:02.699Z,20.80
2023-04-22T01:59:02.637Z,20.80
2023-04-22T02:00:02.606Z,21.80
2023-04-22T02:01:02.551Z,21.40
2023-04-22T02:02:02.544Z,22.40
2023-04-22T02:03:02.533Z,22.00
2023-04-22T02:04:02.410Z,20.70
2023-04-22T02:05:02.425Z,21.40
2023-04-22T02:06:02.299Z,24.00
2023-04-22T02:07:02.256Z,20.50
2023-04-22T02:08:02.204Z,23.10
2023-04-22T02:09:02.158Z,24.80
2023-04-22T02:10:02.110Z,27.10
2023-04-22T02:11:02.064Z,22.90
2023-04-22T02:12:02.026Z,24.70
2023-04-22T02:13:01.977Z,21.60
2023-04-22T02:14:01.937Z,21.80
2023-04-22T02:15:01.882Z,24.40
2023-04-22T02:16:01.875Z,20.80
2023-04-22T02:17:01.821Z,22.20
2023-04-22T02:18:01.733Z,22.10
2023-04-22T02:19:01.697Z,22.10
2023-04-22T02:20:01.733Z,25.50
2023-04-22T02:21:01.590Z,22.80
2023-04-22T02:22:01.542Z,20.90
2023-04-22T02:23:01.518Z,22.90
2023-04-22T02:24:01.445Z,21.90
2023-04-22T02:25:01.411Z,24.80
2023-04-22T02:26:01.356Z,25.20
2023-04-22T02:27:01.316Z,24.80
2023-04-22T02:28:01.264Z,21.30
2023-04-22T02:29:01.213Z,24.50
2023-04-22T02:30:01.216Z,25.50
2023-04-22T02:31:01.164Z,29.20
2023-04-22T02:32:01.077Z,25.20
2023-04-22T02:33:01.134Z,25.50
2023-04-22T02:34:00.995Z,26.40
2023-04-22T02:35:00.944Z,29.70
2023-04-22T02:36:00.886Z,24.10
2023-04-22T02:37:00.836Z,25.60
2023-04-22T02:38:00.802Z,24.80
2023-04-22T02:39:00.744Z,24.70
2023-04-22T02:40:00.706Z,22.40
2023-04-22T02:41:00.646Z,28.20
2023-04-22T02:42:00.601Z,26.80
2023-04-22T02:43:00.559Z,23.90
2023-04-22T02:44:00.532Z,23.60
2023-04-22T02:45:00.466Z,24.30
2023-04-22T02:46:00.453Z,25.50
2023-04-22T02:47:00.503Z,24.00
2023-04-22T02:48:00.363Z,25.70
2023-04-22T02:49:00.280Z,25.80
2023-04-22T02:50:00.248Z,25.20
2023-04-22T02:51:00.175Z,25.20
2023-04-22T02:52:00.163Z,26.20
2023-04-22T02:53:00.096Z,24.90
2023-04-22T02:54:00.041Z,27.40
2023-04-22T02:54:59.996Z,27.30
2023-04-22T02:55:59.957Z,24.80
2023-04-22T02:56:59.901Z,26.60
2023-04-22T02:57:59.860Z,27.50
2023-04-22T02:58:59.800Z,24.00
2023-04-22T02:59:59.755Z,23.80
2023-04-22T03:00:59.843Z,27.00
2023-04-22T03:01:59.748Z,23.70
2023-04-22T03:02:59.724Z,23.20
2023-04-22T03:04:00.084Z,24.30
2023-04-22T03:04:59.518Z,22.60
2023-04-22T03:05:59.474Z,22.70
2023-04-22T03:06:59.430Z,24.40
2023-04-22T03:07:59.377Z,22.40
2023-04-22T03:08:59.333Z,21.60
2023-04-22T03:09:59.292Z,24.60
2023-04-22T03:10:59.239Z,26.80
2023-04-22T03:11:59.192Z,22.20
2023-04-22T03:12:59.143Z,23.30
2023-04-22T03:13:59.100Z,23.60
2023-04-22T03:14:59.056Z,25.10
2023-04-22T03:15:59.003Z,24.70
2023-04-22T03:16:59.075Z,22.90
2023-04-22T03:17:59.002Z,26.10
2023-04-22T03:18:58.863Z,26.30
2023-04-22T03:19:58.824Z,23.60
2023-04-22T03:20:58.774Z,21.70
2023-04-22T03:21:58.721Z,24.10
2023-04-22T03:22:58.670Z,24.90
2023-04-22T03:23:58.629Z,26.80
2023-04-22T03:24:58.593Z,27.30
2023-04-22T03:25:58.541Z,24.50
2023-04-22T03:26:58.493Z,29.60
2023-04-22T03:27:58.441Z,23.70
2023-04-22T03:28:58.393Z,26.80
2023-04-22T03:29:58.346Z,28.20
2023-04-22T03:30:58.300Z,25.20
2023-04-22T03:31:58.293Z,26.80
2023-04-22T03:32:58.253Z,23.10
2023-04-22T03:33:58.214Z,25.20
2023-04-22T03:34:58.117Z,23.40
2023-04-22T03:35:58.075Z,24.40
2023-04-22T03:36:58.016Z,25.60
2023-04-22T03:37:58.002Z,22.00
2023-04-22T03:38:57.926Z,26.80
2023-04-22T03:39:57.899Z,24.10
2023-04-22T03:40:57.830Z,25.30
2023-04-22T03:41:57.783Z,22.50
2023-04-22T03:42:57.735Z,26.10
2023-04-22T03:43:59.540Z,27.20
2023-04-22T03:44:57.652Z,25.40
2023-04-22T03:45:57.628Z,25.90
2023-04-22T03:46:57.584Z,23.40
2023-04-22T03:47:57.547Z,24.00
2023-04-22T03:48:57.452Z,25.90
2023-04-22T03:49:57.426Z,24.10
2023-04-22T03:50:57.356Z,24.50
2023-04-22T03:51:57.318Z,23.60
2023-04-22T03:52:57.281Z,24.20
2023-04-22T03:53:57.222Z,25.40
2023-04-22T03:54:57.169Z,27.70
2023-04-22T03:55:57.127Z,23.40
2023-04-22T03:56:57.085Z,25.50
2023-04-22T03:57:57.032Z,29.10
2023-04-22T03:58:56.986Z,25.50
2023-04-22T03:59:56.939Z,25.80
2023-04-22T04:00:56.890Z,25.70
2023-04-22T04:01:56.874Z,24.80
2023-04-22T04:02:56.934Z,23.60
2023-04-22T04:03:56.979Z,21.80
2023-04-22T04:04:57.016Z,22.20
2023-04-22T04:05:56.749Z,23.60
2023-04-22T04:06:56.610Z,25.30
2023-04-22T04:07:56.563Z,25.20
2023-04-22T04:08:56.514Z,24.30
2023-04-22T04:09:56.465Z,26.70
2023-04-22T04:10:56.423Z,24.50
2023-04-22T04:11:56.373Z,23.80
2023-04-22T04:12:56.321Z,27.20
2023-04-22T04:13:56.280Z,23.60
2023-04-22T04:14:56.235Z,26.50
2023-04-22T04:15:56.228Z,21.40
2023-04-22T04:16:56.136Z,22.30
2023-04-22T04:17:56.128Z,23.40
2023-04-22T04:18:56.040Z,24.40
2023-04-22T04:19:56.003Z,26.90
2023-04-22T04:20:55.945Z,25.50
2023-04-22T04:21:55.917Z,23.70
2023-04-22T04:22:55.853Z,23.90
2023-04-22T04:23:55.809Z,24.10
2023-04-22T04:24:55.758Z,26.00
2023-04-22T04:25:55.736Z,25.10
2023-04-22T04:26:55.673Z,25.30
2023-04-22T04:27:55.630Z,24.80
2023-04-22T04:28:55.579Z,24.90
2023-04-22T04:29:55.526Z,25.60
2023-04-22T04:30:55.485Z,25.40
2023-04-22T04:31:55.428Z,24.50
2023-04-22T04:32:55.393Z,21.60
2023-04-22T04:33:55.333Z,25.10
2023-04-22T04:34:55.294Z,27.30
2023-04-22T04:35:55.243Z,24.40
2023-04-22T04:36:55.193Z,24.90
2023-04-22T04:37:55.172Z,22.20
2023-04-22T04:38:55.716Z,24.00
2023-04-22T04:39:55.054Z,23.10
2023-04-22T04:40:55.008Z,26.60
2023-04-22T04:41:54.963Z,21.90
2023-04-22T04:42:54.912Z,23.50
2023-04-22T04:43:54.865Z,24.90
2023-04-22T04:44:54.815Z,24.40
2023-04-22T04:45:54.783Z,25.00
2023-04-22T04:46:54.989Z,22.50
2023-04-22T04:47:54.792Z,24.10
2023-04-22T04:48:54.624Z,24.30
2023-04-22T04:49:54.588Z,24.40
2023-04-22T04:50:54.535Z,24.70
2023-04-22T04:51:54.488Z,25.90
2023-04-22T04:52:54.442Z,24.40
2023-04-22T04:53:54.413Z,24.20
2023-04-22T04:54:54.348Z,25.10
2023-04-22T04:55:54.301Z,26.90
2023-04-22T04:56:54.260Z,31.30
2023-04-22T04:57:54.207Z,27.20
2023-04-22T04:58:54.160Z,24.40
2023-04-22T04:59:54.116Z,26.80
2023-04-22T05:00:54.063Z,25.80
2023-04-22T05:01:54.043Z,27.60
2023-04-22T05:02:54.049Z,25.60
2023-04-22T05:03:54.033Z,26.40
2023-04-22T05:04:53.927Z,24.00
2023-04-22T05:05:53.834Z,26.10
2023-04-22T05:06:53.786Z,24.40
2023-04-22T05:07:53.762Z,27.20
2023-04-22T05:08:53.694Z,24.10
2023-04-22T05:09:53.669Z,25.60
2023-04-22T05:10:53.598Z,24.00
2023-04-22T05:11:53.558Z,24.30
2023-04-22T05:12:53.510Z,26.90
2023-04-22T05:13:53.459Z,27.50
2023-04-22T05:14:53.414Z,26.50
2023-04-22T05:15:53.367Z,22.30
2023-04-22T05:16:53.405Z,24.10
2023-04-22T05:17:53.300Z,23.70
2023-04-22T05:18:53.227Z,21.70
2023-04-22T05:19:53.183Z,24.50
2023-04-22T05:20:53.131Z,25.40
2023-04-22T05:21:53.083Z,24.90
2023-04-22T05:22:53.045Z,24.80
2023-04-22T05:23:53.001Z,24.30
2023-04-22T05:24:52.962Z,25.30
2023-04-22T05:25:53.488Z,24.00
2023-04-22T05:26:52.850Z,23.90
2023-04-22T05:27:52.807Z,23.40
2023-04-22T05:28:52.782Z,24.20
2023-04-22T05:29:52.720Z,22.50
2023-04-22T05:30:52.679Z,21.30
2023-04-22T05:31:52.697Z,23.30
2023-04-22T05:32:52.651Z,22.30
2023-04-22T05:33:52.531Z,23.10
2023-04-22T05:34:52.480Z,23.20
2023-04-22T05:35:52.478Z,25.10
2023-04-22T05:36:52.388Z,23.90
2023-04-22T05:37:52.341Z,23.90
2023-04-22T05:38:52.299Z,22.20
2023-04-22T05:39:52.247Z,24.00
2023-04-22T05:40:52.205Z,23.70
2023-04-22T05:41:52.178Z,20.90
2023-04-22T05:42:52.103Z,22.80
2023-04-22T05:43:52.079Z,21.40
2023-04-22T05:44:52.028Z,24.00
2023-04-22T05:45:51.988Z,25.40
2023-04-22T05:46:51.938Z,24.60
2023-04-22T05:47:51.971Z,23.40
2023-04-22T05:48:51.879Z,23.20
2023-04-22T05:49:51.781Z,22.70
2023-04-22T05:50:51.730Z,23.20
2023-04-22T05:51:51.682Z,22.20
2023-04-22T05:52:51.635Z,22.80
2023-04-22T05:53:51.595Z,22.20
2023-04-22T05:54:51.542Z,20.50
2023-04-22T05:55:51.498Z,20.10
2023-04-22T05:56:51.449Z,19.70
2023-04-22T05:57:51.513Z,23.50
2023-04-22T05:58:51.361Z,22.40
2023-04-22T05:59:51.317Z,21.40
2023-04-22T06:00:51.263Z,22.70
2023-04-22T06:01:51.224Z,21.40
2023-04-22T06:02:51.326Z,23.80
2023-04-22T06:03:51.332Z,23.00
2023-04-22T06:04:51.391Z,24.20
2023-04-22T06:05:51.104Z,21.90
2023-04-22T06:06:50.983Z,21.40
2023-04-22T06:07:50.938Z,21.90
2023-04-22T21:45:33.324Z,15.80
2023-04-22T21:46:33.261Z,22.90
2023-04-22T21:47:33.222Z,27.00
2023-04-22T21:48:33.974Z,29.20
2023-04-22T21:49:33.103Z,30.30
2023-04-22T21:50:33.062Z,30.50
2023-04-22T21:51:33.003Z,33.50
2023-04-22T21:52:32.953Z,34.30
2023-04-22T21:53:32.908Z,32.90
2023-04-22T21:54:32.863Z,34.00
2023-04-22T21:55:32.815Z,32.60
2023-04-22T21:56:32.765Z,33.20
2023-04-22T21:57:32.734Z,33.90
2023-04-22T21:58:32.690Z,33.30
2023-04-22T21:59:32.637Z,31.00
2023-04-22T22:00:32.591Z,33.90
2023-04-22T22:01:32.590Z,34.00
2023-04-22T22:02:32.599Z,37.10
2023-04-22T22:03:32.543Z,34.60
2023-04-22T22:04:32.500Z,33.00
2023-04-22T22:05:32.361Z,34.80
2023-04-22T22:06:32.320Z,37.60
2023-04-22T22:07:32.276Z,34.50
2023-04-22T22:08:32.231Z,36.20
2023-04-22T22:09:32.185Z,34.70
2023-04-22T22:10:32.138Z,35.90
2023-04-22T22:11:32.097Z,33.50
2023-04-22T22:12:32.067Z,35.30
2023-04-22T22:13:32.026Z,35.80
2023-04-22T22:14:31.965Z,37.20
2023-04-22T22:15:31.923Z,36.60
2023-04-22T22:16:31.944Z,37.50
2023-04-22T22:17:31.854Z,35.00
2023-04-22T22:18:31.786Z,36.60
2023-04-22T22:19:31.742Z,34.60
2023-04-22T22:20:31.695Z,32.10
2023-04-22T22:21:31.655Z,36.40
2023-04-22T22:22:33.029Z,36.70
2023-04-22T22:23:31.572Z,35.30
2023-04-22T22:24:31.572Z,36.00
2023-04-22T22:25:31.486Z,33.50
2023-04-22T22:26:31.431Z,36.30
2023-04-22T22:27:31.392Z,35.40
2023-04-22T22:28:31.348Z,35.40
2023-04-22T22:29:31.301Z,35.10
2023-04-22T22:31:31.244Z,35.30
2023-04-22T22:32:31.251Z,38.70
2023-04-22T22:33:31.146Z,36.50
2023-04-22T22:34:31.088Z,39.00
2023-04-22T22:35:31.037Z,38.30
2023-04-22T22:36:30.996Z,39.80
2023-04-22T22:37:30.955Z,38.50
2023-04-22T22:38:30.908Z,40.10
2023-04-22T22:39:30.861Z,38.50
2023-04-22T22:40:30.818Z,37.80
2023-04-22T22:41:30.774Z,38.80
2023-04-22T22:42:30.733Z,42.30
2023-04-22T22:43:30.691Z,43.50
2023-04-22T22:44:30.643Z,41.20
2023-04-22T22:45:30.624Z,41.60
2023-04-22T22:46:30.571Z,42.50
2023-04-22T22:47:30.531Z,42.70
2023-04-22T22:48:30.465Z,43.80
2023-04-22T22:49:30.439Z,42.50
2023-04-22T22:50:30.422Z,41.10
2023-04-22T22:51:30.340Z,44.00
2023-04-22T22:52:30.287Z,44.60
2023-04-22T22:53:30.294Z,44.00
2023-04-22T22:54:30.221Z,43.50
2023-04-22T22:55:30.199Z,45.30
2023-04-22T22:56:30.120Z,44.50
2023-04-22T22:57:30.068Z,46.00
2023-04-22T22:58:30.031Z,47.20
2023-04-22T22:59:29.989Z,48.50
2023-04-22T23:00:29.938Z,46.90
2023-04-22T23:01:29.975Z,45.70
2023-04-22T23:02:29.946Z,47.30
2023-04-22T23:03:30.106Z,47.30
2023-04-22T23:04:29.937Z,46.80
2023-04-22T23:05:29.761Z,46.30
2023-04-22T23:06:29.687Z,50.20
2023-04-22T23:07:29.647Z,47.90
2023-04-22T23:08:29.593Z,49.50
2023-04-22T23:09:29.546Z,45.80
2023-04-22T23:10:29.517Z,50.00
2023-04-22T23:11:29.470Z,49.20
2023-04-22T23:12:29.432Z,46.90
2023-04-22T23:13:29.476Z,49.00
2023-04-22T23:14:29.568Z,51.30
2023-04-22T23:15:29.489Z,51.50
2023-04-22T23:16:29.310Z,51.80
2023-04-22T23:17:29.236Z,50.70
2023-04-22T23:18:29.153Z,51.90
2023-04-22T23:19:29.125Z,50.30
2023-04-22T23:20:29.073Z,49.20
2023-04-22T23:21:29.039Z,47.80
2023-04-22T23:22:28.978Z,48.10
2023-04-22T23:23:28.931Z,53.70
2023-04-22T23:24:28.891Z,53.10
2023-04-22T23:25:28.846Z,51.70
2023-04-22T23:26:28.801Z,50.80
2023-04-22T23:27:28.756Z,49.60
2023-04-22T23:28:28.748Z,51.00
2023-04-22T23:29:28.671Z,50.60
2023-04-22T23:30:28.629Z,51.30
2023-04-22T23:31:28.655Z,53.40
2023-04-22T23:32:28.559Z,51.30
2023-04-22T23:33:28.500Z,49.70
2023-04-22T23:34:28.451Z,49.20
2023-04-22T23:35:28.417Z,49.70
2023-04-22T23:36:28.362Z,51.80
2023-04-22T23:37:28.352Z,51.00
2023-04-22T23:38:28.276Z,51.30
2023-04-22T23:39:28.230Z,52.80
2023-04-22T23:40:28.194Z,52.10
2023-04-22T23:41:28.141Z,50.20
2023-04-22T23:42:28.124Z,56.80
2023-04-22T23:43:28.058Z,52.90
2023-04-22T23:44:28.024Z,58.40
2023-04-22T23:45:27.964Z,58.90
2023-04-22T23:46:28.021Z,54.70
2023-04-22T23:47:27.917Z,55.10
2023-04-22T23:48:27.832Z,53.70
2023-04-22T23:49:27.790Z,57.00
2023-04-22T23:50:27.748Z,59.60
2023-04-22T23:51:27.699Z,56.70
2023-04-22T23:52:27.659Z,61.20
2023-04-22T23:53:27.631Z,62.10
2023-04-22T23:54:27.567Z,61.70
2023-04-22T23:55:27.537Z,61.40
2023-04-22T23:56:27.479Z,61.50
2023-04-22T23:57:27.447Z,63.20
2023-04-22T23:58:27.395Z,61.30
2023-04-22T23:59:27.352Z,62.40
